createdAt,value
2022-10-09T00:00:40.180Z,13.82
2022-10-09T00:03:07.280Z,13.82
2022-10-09T00:05:33.934Z,13.80
2022-10-09T00:08:00.518Z,13.88
2022-10-09T00:10:27.319Z,13.90
2022-10-09T00:12:53.999Z,13.95
2022-10-09T00:15:20.589Z,13.97
2022-10-09T00:17:47.155Z,14.02
2022-10-09T00:20:13.832Z,14.03
2022-10-09T00:22:40.421Z,14.07
2022-10-09T00:25:07.244Z,14.06
2022-10-09T00:27:33.833Z,14.06
2022-10-09T00:30:00.419Z,14.07
2022-10-09T00:32:26.996Z,14.03
2022-10-09T00:34:53.572Z,14.02
2022-10-09T00:37:20.141Z,14.05
2022-10-09T00:39:46.757Z,14.06
2022-10-09T00:42:13.961Z,14.09
2022-10-09T00:44:46.680Z,14.08
2022-10-09T00:47:21.038Z,14.10
2022-10-09T00:49:48.435Z,14.04
2022-10-09T00:52:15.222Z,13.92
2022-10-09T00:54:42.610Z,13.83
2022-10-09T00:57:09.592Z,13.67
2022-10-09T00:59:36.709Z,13.58
2022-10-09T01:02:03.717Z,13.51
2022-10-09T01:04:30.980Z,13.53
2022-10-09T01:07:24.142Z,13.56
2022-10-09T01:10:08.954Z,13.51
2022-10-09T01:12:38.547Z,13.49
2022-10-09T01:15:21.961Z,13.37
2022-10-09T01:17:54.174Z,13.38
2022-10-09T01:20:29.825Z,13.51
2022-10-09T01:23:27.326Z,13.60
2022-10-09T01:26:24.778Z,13.50
2022-10-09T01:28:54.302Z,13.49
2022-10-09T01:31:21.996Z,13.47
2022-10-09T01:33:48.810Z,13.35
2022-10-09T01:36:16.316Z,13.34
2022-10-09T01:38:44.041Z,13.37
2022-10-09T01:41:10.683Z,13.29
2022-10-09T01:43:37.296Z,13.25
2022-10-09T01:46:26.864Z,13.19
2022-10-09T01:49:30.769Z,13.24
2022-10-09T01:52:07.784Z,13.24
2022-10-09T01:54:54.877Z,13.21
2022-10-09T01:57:32.798Z,13.20
2022-10-09T02:00:00.065Z,13.30
2022-10-09T02:02:27.164Z,13.38
2022-10-09T02:04:54.026Z,13.35
2022-10-09T02:07:21.118Z,13.38
2022-10-09T02:09:47.707Z,13.40
2022-10-09T02:12:15.529Z,13.43
2022-10-09T02:14:42.130Z,13.44
2022-10-09T02:17:19.839Z,13.34
2022-10-09T02:19:57.052Z,13.29
2022-10-09T02:22:26.261Z,13.30
2022-10-09T02:24:53.172Z,13.27
2022-10-09T02:27:21.611Z,13.26
2022-10-09T02:29:49.318Z,13.19
2022-10-09T02:32:16.121Z,13.15
2022-10-09T02:34:43.238Z,13.27
2022-10-09T02:37:09.870Z,13.24
2022-10-09T02:39:36.924Z,13.15
2022-10-09T02:42:04.353Z,13.12
2022-10-09T02:44:30.917Z,13.12
2022-10-09T02:46:57.508Z,13.18
2022-10-09T02:49:24.254Z,13.26
2022-10-09T02:51:51.018Z,13.32
2022-10-09T02:54:17.650Z,13.38
2022-10-09T02:56:44.223Z,13.35
2022-10-09T02:59:10.903Z,13.32
2022-10-09T03:01:37.583Z,13.39
2022-10-09T03:04:04.801Z,13.43
2022-10-09T03:06:31.860Z,13.42
2022-10-09T03:08:58.513Z,13.38
2022-10-09T03:11:25.830Z,13.42
2022-10-09T03:13:52.826Z,13.46
2022-10-09T03:16:21.579Z,13.48
2022-10-09T03:18:49.162Z,13.57
2022-10-09T03:21:18.680Z,13.62
2022-10-09T03:23:45.270Z,13.65
2022-10-09T03:26:14.497Z,13.62
2022-10-09T03:28:43.261Z,13.62
2022-10-09T03:31:18.967Z,13.64
2022-10-09T03:33:54.181Z,13.68
2022-10-09T03:36:20.768Z,13.66
2022-10-09T03:38:47.353Z,13.61
2022-10-09T03:41:13.941Z,13.56
2022-10-09T03:43:40.516Z,13.50
2022-10-09T03:46:08.519Z,13.47
2022-10-09T03:48:35.985Z,13.48
2022-10-09T03:51:03.296Z,13.51
2022-10-09T03:53:29.968Z,13.59
2022-10-09T03:55:56.569Z,13.57
2022-10-09T03:58:23.592Z,13.51
2022-10-09T04:00:52.021Z,13.43
2022-10-09T04:03:19.337Z,13.46
2022-10-09T04:05:45.929Z,13.37
2022-10-09T04:08:12.632Z,13.28
2022-10-09T04:10:39.227Z,13.26
2022-10-09T04:13:06.221Z,13.23
2022-10-09T04:15:32.820Z,13.20
2022-10-09T04:17:59.439Z,13.13
2022-10-09T04:20:25.999Z,13.05
2022-10-09T04:22:52.607Z,13.01
2022-10-09T04:25:19.203Z,12.99
2022-10-09T04:27:45.809Z,13.05
2022-10-09T04:30:12.870Z,13.15
2022-10-09T04:32:39.450Z,13.21
2022-10-09T04:35:06.569Z,13.11
2022-10-09T04:37:33.211Z,13.06
2022-10-09T04:39:59.830Z,13.15
2022-10-09T04:42:26.409Z,13.15
2022-10-09T04:44:53.050Z,13.16
2022-10-09T04:47:19.638Z,13.13
2022-10-09T04:49:46.300Z,13.10
2022-10-09T04:52:12.845Z,13.13
2022-10-09T04:54:39.442Z,13.20
2022-10-09T04:57:06.006Z,13.27
2022-10-09T04:59:32.599Z,13.33
2022-10-09T05:01:59.252Z,13.34
2022-10-09T05:04:25.897Z,13.39
2022-10-09T05:06:52.486Z,13.40
2022-10-09T05:09:19.127Z,13.43
2022-10-09T05:11:45.726Z,13.46
2022-10-09T05:14:12.282Z,13.46
2022-10-09T05:16:55.279Z,13.47
2022-10-09T05:19:25.883Z,13.45
2022-10-09T05:21:52.529Z,13.42
2022-10-09T05:24:19.211Z,13.39
2022-10-09T05:26:45.846Z,13.38
2022-10-09T05:29:12.415Z,13.42
2022-10-09T05:31:39.096Z,13.44
2022-10-09T05:34:05.816Z,13.48
2022-10-09T05:36:32.436Z,13.51
2022-10-09T05:39:01.162Z,13.52
2022-10-09T05:41:29.579Z,13.52
2022-10-09T05:44:01.345Z,13.53
2022-10-09T05:46:29.808Z,13.52
2022-10-09T05:48:58.488Z,13.52
2022-10-09T05:51:30.508Z,13.54
2022-10-09T05:53:57.874Z,13.55
2022-10-09T05:56:29.598Z,13.56
2022-10-09T05:58:58.340Z,13.61
2022-10-09T06:01:27.310Z,13.59
2022-10-09T06:03:56.150Z,13.56
2022-10-09T06:06:25.480Z,13.50
2022-10-09T06:08:52.357Z,13.48
2022-10-09T06:11:24.581Z,13.46
2022-10-09T06:13:52.326Z,13.46
2022-10-09T06:16:19.087Z,13.46
2022-10-09T06:18:49.322Z,13.51
2022-10-09T06:21:16.932Z,13.59
2022-10-09T06:23:43.732Z,13.58
2022-10-09T06:26:13.884Z,13.57
2022-10-09T06:28:41.066Z,13.56
2022-10-09T06:31:09.965Z,13.58
2022-10-09T06:33:38.629Z,13.57
2022-10-09T06:36:10.231Z,13.54
2022-10-09T06:38:38.321Z,13.55
2022-10-09T06:41:10.112Z,13.51
2022-10-09T06:43:36.697Z,13.42
2022-10-09T06:46:05.631Z,13.32
2022-10-09T06:48:33.176Z,13.29
2022-10-09T06:51:04.662Z,13.27
2022-10-09T06:53:34.882Z,13.28
2022-10-09T06:56:01.437Z,13.29
2022-10-09T06:58:28.248Z,13.28
2022-10-09T07:01:15.098Z,13.31
2022-10-09T07:03:44.015Z,13.35
2022-10-09T07:06:14.584Z,13.39
2022-10-09T07:08:43.107Z,13.41
2022-10-09T07:11:20.910Z,13.41
2022-10-09T07:13:49.986Z,13.43
2022-10-09T07:16:21.963Z,13.43
2022-10-09T07:18:48.961Z,13.45
2022-10-09T07:21:15.741Z,13.48
2022-10-09T07:23:42.970Z,13.48
2022-10-09T07:26:18.311Z,13.50
2022-10-09T07:28:46.057Z,13.50
2022-10-09T07:31:13.624Z,13.48
2022-10-09T07:33:41.803Z,13.50
2022-10-09T07:36:09.900Z,13.53
2022-10-09T07:38:36.638Z,13.56
2022-10-09T07:41:08.684Z,13.59
2022-10-09T07:43:36.266Z,13.65
2022-10-09T07:46:04.477Z,13.69
2022-10-09T07:48:31.521Z,13.71
2022-10-09T07:50:58.103Z,13.71
2022-10-09T07:53:24.856Z,13.72
2022-10-09T07:55:51.433Z,13.73
2022-10-09T07:58:18.132Z,13.74
2022-10-09T08:00:44.690Z,13.80
2022-10-09T08:03:11.378Z,13.80
2022-10-09T08:05:38.058Z,13.78
2022-10-09T08:08:04.703Z,13.81
2022-10-09T08:10:32.095Z,13.88
2022-10-09T08:12:58.780Z,13.89
2022-10-09T08:15:26.203Z,13.99
2022-10-09T08:17:53.871Z,14.00
2022-10-09T08:20:20.597Z,14.05
2022-10-09T08:22:47.581Z,14.03
2022-10-09T08:25:14.430Z,14.10
2022-10-09T08:27:40.976Z,14.13
2022-10-09T08:30:08.518Z,14.09
2022-10-09T08:32:35.248Z,14.08
2022-10-09T08:35:01.934Z,14.14
2022-10-09T08:37:28.529Z,14.19
2022-10-09T08:39:55.095Z,14.18
2022-10-09T08:42:35.083Z,14.21
2022-10-09T08:45:02.426Z,14.24
2022-10-09T08:47:41.370Z,14.30
2022-10-09T08:50:24.059Z,14.36
2022-10-09T08:52:57.030Z,14.28
2022-10-09T08:55:32.682Z,14.28
2022-10-09T08:58:05.579Z,14.22
2022-10-09T09:00:43.771Z,14.22
2022-10-09T09:03:37.736Z,14.24
2022-10-09T09:06:17.127Z,14.30
2022-10-09T09:08:59.041Z,14.29
2022-10-09T09:11:44.283Z,14.34
2022-10-09T09:14:40.820Z,14.30
2022-10-09T09:17:29.100Z,14.25
2022-10-09T09:20:12.860Z,14.26
2022-10-09T09:22:43.566Z,14.28
2022-10-09T09:25:24.957Z,14.32
2022-10-09T09:27:58.375Z,14.38
2022-10-09T09:30:27.246Z,14.43
2022-10-09T09:33:16.952Z,14.48
2022-10-09T09:35:55.396Z,14.53
2022-10-09T09:38:22.015Z,14.56
2022-10-09T09:40:48.880Z,14.57
2022-10-09T09:43:20.437Z,14.58
2022-10-09T09:45:47.685Z,14.62
2022-10-09T09:48:34.469Z,14.68
2022-10-09T09:51:23.374Z,14.76
2022-10-09T09:54:19.117Z,14.86
2022-10-09T09:59:40.106Z,14.93
2022-10-09T10:02:06.709Z,14.95
2022-10-09T10:04:33.389Z,14.99
2022-10-09T10:06:59.979Z,15.07
2022-10-09T10:09:27.181Z,15.12
2022-10-09T10:11:59.320Z,15.16
2022-10-09T10:14:26.908Z,15.16
2022-10-09T10:16:55.527Z,15.10
2022-10-09T10:19:31.829Z,15.08
2022-10-09T10:22:04.167Z,15.11
2022-10-09T10:24:38.902Z,15.15
2022-10-09T10:27:11.781Z,15.22
2022-10-09T10:33:27.827Z,15.25
2022-10-09T10:35:56.332Z,15.23
2022-10-09T10:38:46.783Z,15.35
2022-10-09T10:41:26.691Z,15.48
2022-10-09T10:44:04.173Z,15.53
2022-10-09T10:46:41.917Z,15.55
2022-10-09T10:49:10.699Z,15.60
2022-10-09T10:51:46.642Z,15.56
2022-10-09T10:54:34.161Z,15.52
2022-10-09T10:57:16.845Z,15.52
2022-10-09T11:00:18.981Z,15.50
2022-10-09T11:03:20.748Z,15.49
2022-10-09T11:05:56.480Z,15.49
2022-10-09T11:08:29.156Z,15.52
2022-10-09T11:11:15.888Z,15.54
2022-10-09T11:14:14.564Z,15.49
2022-10-09T11:16:58.225Z,15.46
2022-10-09T11:19:54.042Z,15.41
2022-10-09T11:22:38.931Z,15.35
2022-10-09T11:25:20.265Z,15.30
2022-10-09T11:27:52.944Z,15.31
2022-10-09T11:30:19.886Z,15.31
2022-10-09T11:33:18.388Z,15.31
2022-10-09T11:36:01.787Z,15.29
2022-10-09T11:38:32.132Z,15.27
2022-10-09T11:41:00.050Z,15.25
2022-10-09T11:43:28.784Z,15.25
2022-10-09T11:45:55.320Z,15.25
2022-10-09T11:48:37.830Z,15.26
2022-10-09T11:51:19.870Z,15.28
2022-10-09T11:53:47.239Z,15.29
2022-10-09T11:56:29.170Z,15.29
2022-10-09T11:59:04.830Z,15.30
2022-10-09T12:01:40.978Z,15.30
2022-10-09T12:04:27.763Z,15.28
2022-10-09T12:07:09.479Z,15.26
2022-10-09T12:09:48.305Z,15.26
2022-10-09T12:12:18.450Z,15.24
2022-10-09T12:14:47.008Z,15.22
2022-10-09T12:17:22.570Z,15.22
2022-10-09T12:20:01.750Z,15.22
2022-10-09T12:22:41.588Z,15.22
2022-10-09T12:25:32.739Z,15.24
2022-10-09T12:28:00.599Z,15.27
2022-10-09T12:30:35.602Z,15.26
2022-10-09T12:33:15.286Z,15.26
2022-10-09T12:35:44.772Z,15.27
2022-10-09T12:38:43.881Z,15.25
2022-10-09T12:41:29.046Z,15.21
2022-10-09T12:43:56.612Z,15.22
2022-10-09T12:46:34.205Z,15.28
2022-10-09T12:49:02.199Z,15.26
2022-10-09T12:51:30.535Z,15.35
2022-10-09T12:53:57.179Z,15.37
2022-10-09T12:56:35.895Z,15.36
2022-10-09T12:59:02.934Z,15.33
2022-10-09T13:01:29.819Z,15.33
2022-10-09T13:04:04.305Z,15.34
2022-10-09T13:06:38.471Z,15.51
2022-10-09T13:09:07.350Z,15.64
2022-10-09T13:11:38.057Z,15.74
2022-10-09T13:14:05.006Z,15.62
2022-10-09T13:16:42.867Z,15.55
2022-10-09T13:19:24.906Z,15.51
2022-10-09T13:22:21.174Z,15.48
2022-10-09T13:24:50.300Z,15.47
2022-10-09T13:27:19.611Z,15.44
2022-10-09T13:29:47.674Z,15.39
2022-10-09T13:32:15.837Z,15.37
2022-10-09T13:34:42.689Z,15.54
2022-10-09T13:37:14.765Z,15.66
2022-10-09T13:39:41.760Z,15.70
2022-10-09T13:42:10.885Z,15.76
2022-10-09T13:44:37.457Z,15.82
2022-10-09T13:47:04.039Z,15.96
2022-10-09T13:49:30.674Z,16.13
2022-10-09T13:51:57.243Z,16.27
2022-10-09T13:54:24.711Z,16.41
2022-10-09T13:56:51.310Z,16.47
2022-10-09T13:59:17.902Z,16.50
2022-10-09T14:01:44.608Z,16.51
2022-10-09T14:04:11.326Z,16.55
2022-10-09T14:06:38.201Z,16.59
2022-10-09T14:09:05.521Z,16.68
2022-10-09T14:11:32.384Z,16.69
2022-10-09T14:13:59.544Z,16.58
2022-10-09T14:16:26.938Z,16.63
2022-10-09T14:22:14.692Z,16.88
2022-10-09T14:24:41.348Z,16.94
2022-10-09T14:27:07.883Z,16.98
2022-10-09T14:29:34.416Z,16.96
2022-10-09T14:32:00.970Z,16.79
2022-10-09T14:34:27.510Z,16.73
2022-10-09T14:36:54.071Z,16.82
2022-10-09T14:39:20.746Z,16.89
2022-10-09T14:41:47.329Z,16.90
2022-10-09T14:44:13.907Z,16.82
2022-10-09T14:46:40.451Z,16.60
2022-10-09T14:49:08.137Z,16.39
2022-10-09T14:51:39.697Z,16.52
2022-10-09T14:54:07.540Z,16.77
2022-10-09T14:56:34.676Z,17.06
2022-10-09T14:59:01.319Z,17.14
2022-10-09T15:01:29.367Z,17.16
2022-10-09T15:03:56.034Z,17.19
2022-10-09T15:06:25.435Z,17.27
2022-10-09T15:08:55.041Z,17.33
2022-10-09T15:11:21.617Z,17.33
2022-10-09T15:13:48.180Z,17.34
2022-10-09T15:16:16.519Z,17.41
2022-10-09T15:18:43.362Z,17.18
2022-10-09T15:21:19.932Z,16.60
2022-10-09T15:23:47.003Z,16.28
2022-10-09T15:26:14.181Z,16.11
2022-10-09T15:28:42.657Z,16.02
2022-10-09T15:31:19.013Z,15.97
2022-10-09T15:33:45.555Z,15.94
2022-10-09T15:36:12.200Z,15.88
2022-10-09T15:38:38.768Z,15.81
2022-10-09T15:41:05.457Z,15.78
2022-10-09T15:43:37.526Z,15.77
2022-10-09T15:46:05.810Z,15.76
2022-10-09T15:48:32.377Z,15.73
2022-10-09T15:51:04.076Z,15.72
2022-10-09T15:53:30.765Z,15.74
2022-10-09T15:55:57.312Z,15.72
2022-10-09T15:58:23.853Z,15.70
2022-10-09T16:00:51.052Z,15.67
2022-10-09T16:03:19.075Z,15.61
2022-10-09T16:05:49.522Z,15.56
2022-10-09T16:08:17.243Z,15.52
2022-10-09T16:10:49.194Z,15.49
2022-10-09T16:13:16.130Z,15.46
2022-10-09T16:15:48.924Z,15.42
2022-10-09T16:18:23.432Z,15.37
2022-10-09T16:20:50.406Z,15.38
2022-10-09T16:23:17.899Z,15.38
2022-10-09T16:25:44.495Z,15.36
2022-10-09T16:28:12.316Z,15.33
2022-10-09T16:30:44.437Z,15.26
2022-10-09T16:33:12.905Z,15.25
2022-10-09T16:35:39.999Z,15.25
2022-10-09T16:38:06.726Z,15.24
2022-10-09T16:40:57.402Z,15.27
2022-10-09T16:43:20.273Z,15.25
2022-10-09T16:45:46.855Z,15.20
2022-10-09T16:48:13.404Z,15.20
2022-10-09T16:50:42.285Z,15.20
2022-10-09T16:53:08.868Z,15.16
2022-10-09T16:55:35.441Z,15.11
2022-10-09T16:58:02.340Z,15.12
2022-10-09T17:00:29.228Z,15.10
2022-10-09T17:02:56.818Z,15.07
2022-10-09T17:05:25.454Z,14.98
2022-10-09T17:07:52.478Z,14.94
2022-10-09T17:10:19.454Z,14.93
2022-10-09T17:12:46.105Z,14.94
2022-10-09T17:15:13.561Z,14.94
2022-10-09T17:17:40.909Z,14.88
2022-10-09T17:20:08.084Z,14.88
2022-10-09T17:22:34.702Z,14.82
2022-10-09T17:25:01.275Z,14.80
2022-10-09T17:27:28.177Z,14.85
2022-10-09T17:29:54.892Z,14.81
2022-10-09T17:32:21.538Z,14.76
2022-10-09T17:34:48.152Z,14.77
2022-10-09T17:37:14.705Z,14.79
2022-10-09T17:39:44.143Z,14.80
2022-10-09T17:42:12.171Z,14.89
2022-10-09T17:44:38.710Z,14.90
2022-10-09T17:47:06.190Z,14.92
2022-10-09T17:49:32.804Z,14.90
2022-10-09T17:51:59.363Z,14.90
2022-10-09T17:54:26.090Z,14.88
2022-10-09T17:56:52.630Z,14.74
2022-10-09T17:59:19.212Z,14.65
2022-10-09T18:01:45.796Z,14.66
2022-10-09T18:04:15.549Z,14.62
2022-10-09T18:06:42.287Z,14.51
2022-10-09T18:09:09.036Z,14.42
2022-10-09T18:11:35.689Z,14.37
2022-10-09T18:14:03.736Z,14.41
2022-10-09T18:16:35.753Z,14.55
2022-10-09T18:19:12.233Z,14.57
2022-10-09T18:21:44.822Z,14.47
2022-10-09T18:24:12.183Z,14.37
2022-10-09T18:26:39.260Z,14.28
2022-10-09T18:29:05.935Z,14.29
2022-10-09T18:31:32.630Z,14.39
2022-10-09T18:34:00.045Z,14.54
2022-10-09T18:36:31.803Z,14.56
2022-10-09T18:39:16.557Z,14.56
2022-10-09T18:41:43.756Z,14.54
2022-10-09T18:44:17.321Z,14.55
2022-10-09T18:46:49.835Z,14.60
2022-10-09T18:49:18.809Z,14.58
2022-10-09T18:51:46.035Z,14.60
2022-10-09T18:54:17.933Z,14.64
2022-10-09T18:56:45.208Z,14.65
2022-10-09T18:59:14.309Z,14.65
2022-10-09T19:01:41.018Z,14.48
2022-10-09T19:04:08.088Z,14.32
2022-10-09T19:06:34.724Z,14.25
2022-10-09T19:09:01.474Z,14.32
2022-10-09T19:11:29.573Z,14.42
2022-10-09T19:13:56.600Z,14.43
2022-10-09T19:16:24.253Z,14.50
2022-10-09T19:18:53.312Z,14.54
2022-10-09T19:21:19.911Z,14.58
2022-10-09T19:23:48.282Z,14.58
2022-10-09T19:26:14.842Z,14.60
2022-10-09T19:28:41.572Z,14.58
2022-10-09T19:31:09.827Z,14.58
2022-10-09T19:33:37.947Z,14.61
2022-10-09T19:36:05.676Z,14.61
2022-10-09T19:38:32.888Z,14.62
2022-10-09T19:41:04.665Z,14.61
2022-10-09T19:43:31.885Z,14.59
2022-10-09T19:46:03.636Z,14.59
2022-10-09T19:48:30.589Z,14.60
2022-10-09T19:50:57.249Z,14.58
2022-10-09T19:53:23.834Z,14.59
2022-10-09T19:55:50.368Z,14.56
2022-10-09T19:58:17.971Z,14.55
2022-10-09T20:00:46.618Z,14.56
2022-10-09T20:03:13.200Z,14.56
2022-10-09T20:05:39.771Z,14.56
2022-10-09T20:08:06.571Z,14.55
2022-10-09T20:10:36.432Z,14.56
2022-10-09T20:13:03.615Z,14.55
2022-10-09T20:15:30.527Z,14.56
2022-10-09T20:17:57.162Z,14.54
2022-10-09T20:20:24.181Z,14.53
2022-10-09T20:22:50.929Z,14.52
2022-10-09T20:25:18.043Z,14.51
2022-10-09T20:27:44.573Z,14.52
2022-10-09T20:30:11.716Z,14.52
2022-10-09T20:32:38.272Z,14.53
2022-10-09T20:35:05.394Z,14.53
2022-10-09T20:37:31.992Z,14.54
2022-10-09T20:39:58.518Z,14.50
2022-10-09T20:42:25.246Z,14.52
2022-10-09T20:44:51.788Z,14.52
2022-10-09T20:47:18.315Z,14.50
2022-10-09T20:49:44.878Z,14.50
2022-10-09T20:52:11.435Z,14.48
2022-10-09T20:54:37.976Z,14.49
2022-10-09T20:57:04.534Z,14.50
2022-10-09T20:59:31.275Z,14.49
2022-10-09T21:01:57.863Z,14.49
2022-10-09T21:04:24.461Z,14.46
2022-10-09T21:06:51.017Z,14.49
2022-10-09T21:09:17.599Z,14.51
2022-10-09T21:11:45.776Z,14.51
2022-10-09T21:14:12.402Z,14.48
2022-10-09T21:16:38.946Z,14.47
2022-10-09T21:19:05.966Z,14.47
2022-10-09T21:21:32.656Z,14.45
2022-10-09T21:24:00.062Z,14.43
2022-10-09T21:26:28.036Z,14.43
2022-10-09T21:28:59.395Z,14.45
2022-10-09T21:31:28.597Z,14.46
2022-10-09T21:33:55.865Z,14.47
2022-10-09T21:37:02.226Z,14.47
2022-10-09T21:39:30.650Z,14.46
2022-10-09T21:41:57.218Z,14.43
2022-10-09T21:44:23.785Z,14.44
2022-10-09T21:46:50.313Z,14.43
2022-10-09T21:49:20.638Z,14.45
2022-10-09T21:51:47.463Z,14.44
2022-10-09T21:54:14.513Z,14.44
2022-10-09T21:56:41.214Z,14.44
2022-10-09T21:59:08.164Z,14.44
2022-10-09T22:01:34.964Z,14.44
2022-10-09T22:04:01.666Z,14.42
2022-10-09T22:06:28.204Z,14.40
2022-10-09T22:08:54.751Z,14.39
2022-10-09T22:11:21.348Z,14.37
2022-10-09T22:13:47.960Z,14.37
2022-10-09T22:16:15.558Z,14.36
2022-10-09T22:18:42.305Z,14.35
2022-10-09T22:21:12.495Z,14.36
2022-10-09T22:23:39.187Z,14.38
2022-10-09T22:26:10.075Z,14.35
2022-10-09T22:28:36.678Z,14.36
2022-10-09T22:31:35.803Z,14.36
2022-10-09T22:34:02.813Z,14.34
2022-10-09T22:36:31.911Z,14.34
2022-10-09T22:39:00.345Z,14.34
2022-10-09T22:41:27.863Z,14.35
2022-10-09T22:43:56.797Z,14.34
2022-10-09T22:46:31.337Z,14.31
2022-10-09T22:48:58.158Z,14.26
2022-10-09T22:51:27.190Z,14.23
2022-10-09T22:53:55.205Z,14.22
2022-10-09T22:56:24.360Z,14.23
2022-10-09T22:58:52.988Z,14.22
2022-10-09T23:01:44.188Z,14.25
2022-10-09T23:04:12.684Z,14.26
2022-10-09T23:06:40.155Z,14.24
2022-10-09T23:09:08.553Z,14.26
2022-10-09T23:11:35.552Z,14.25
2022-10-09T23:14:02.460Z,14.26
2022-10-09T23:16:29.975Z,14.25
2022-10-09T23:18:58.196Z,14.22
2022-10-09T23:21:25.156Z,14.20
2022-10-09T23:23:52.493Z,14.20
2022-10-09T23:26:21.971Z,14.23
2022-10-09T23:28:59.721Z,14.21
2022-10-09T23:31:26.940Z,14.13
2022-10-09T23:33:53.885Z,14.17
2022-10-09T23:36:23.618Z,14.14
2022-10-09T23:38:50.182Z,14.15
2022-10-09T23:41:19.581Z,14.17
2022-10-09T23:43:46.710Z,14.12
2022-10-09T23:46:18.691Z,14.08
2022-10-09T23:48:46.212Z,14.08
2022-10-09T23:51:14.106Z,14.10
2022-10-09T23:53:41.220Z,14.12
2022-10-09T23:56:28.927Z,14.14
2022-10-09T23:58:56.394Z,14.11
